createdAt,value
2023-02-11T00:00:35.471Z,6.86
2023-02-11T00:01:35.521Z,6.87
2023-02-11T00:02:35.542Z,6.87
2023-02-11T00:03:35.586Z,6.86
2023-02-11T00:04:35.456Z,6.83
2023-02-11T00:05:35.424Z,6.86
2023-02-11T00:06:35.416Z,6.83
2023-02-11T00:07:35.398Z,6.82
2023-02-11T00:08:35.393Z,6.81
2023-02-11T00:09:35.392Z,6.83
2023-02-11T00:10:35.359Z,6.82
2023-02-11T00:11:35.370Z,6.82
2023-02-11T00:12:35.338Z,6.82
2023-02-11T00:13:35.326Z,6.83
2023-02-11T00:14:35.326Z,6.83
2023-02-11T00:15:35.303Z,6.83
2023-02-11T00:16:35.386Z,6.82
2023-02-11T00:17:35.281Z,6.86
2023-02-11T00:18:35.275Z,6.87
2023-02-11T00:19:35.256Z,6.87
2023-02-11T00:20:35.253Z,6.87
2023-02-11T00:21:35.236Z,6.87
2023-02-11T00:22:35.229Z,6.89
2023-02-11T00:23:35.218Z,6.87
2023-02-11T00:24:35.207Z,6.87
2023-02-11T00:25:35.192Z,6.89
2023-02-11T00:26:35.187Z,6.89
2023-02-11T00:27:35.192Z,6.89
2023-02-11T00:28:35.193Z,6.89
2023-02-11T00:29:35.146Z,6.89
2023-02-11T00:30:35.242Z,6.87
2023-02-11T00:31:35.331Z,6.89
2023-02-11T00:32:35.115Z,6.87
2023-02-11T00:33:35.100Z,6.87
2023-02-11T00:34:35.094Z,6.89
2023-02-11T00:35:35.076Z,6.89
2023-02-11T00:36:35.072Z,6.90
2023-02-11T00:37:35.052Z,6.89
2023-02-11T00:38:35.047Z,6.89
2023-02-11T00:39:35.043Z,6.87
2023-02-11T00:40:35.024Z,6.89
2023-02-11T00:41:35.011Z,6.89
2023-02-11T00:42:35.000Z,6.90
2023-02-11T00:43:35.011Z,6.90
2023-02-11T00:44:34.979Z,6.87
2023-02-11T00:45:34.981Z,6.90
2023-02-11T00:46:35.099Z,6.90
2023-02-11T00:47:34.951Z,6.91
2023-02-11T00:48:34.931Z,6.94
2023-02-11T00:49:34.921Z,6.94
2023-02-11T00:50:34.908Z,6.94
2023-02-11T00:51:34.901Z,6.93
2023-02-11T00:52:34.938Z,6.94
2023-02-11T00:53:34.890Z,6.94
2023-02-11T00:54:34.892Z,6.96
2023-02-11T00:55:34.853Z,6.97
2023-02-11T00:56:34.848Z,6.99
2023-02-11T00:57:34.830Z,6.99
2023-02-11T00:58:34.838Z,6.99
2023-02-11T00:59:34.836Z,7.00
2023-02-11T01:00:34.798Z,6.99
2023-02-11T01:01:34.943Z,7.00
2023-02-11T01:02:34.777Z,7.00
2023-02-11T01:03:34.776Z,6.99
2023-02-11T01:04:34.759Z,7.01
2023-02-11T01:05:34.805Z,7.00
2023-02-11T01:06:34.738Z,7.00
2023-02-11T01:07:34.721Z,7.00
2023-02-11T01:08:34.710Z,7.01
2023-02-11T01:09:34.702Z,7.00
2023-02-11T01:10:34.693Z,7.01
2023-02-11T01:11:34.680Z,7.04
2023-02-11T01:12:36.478Z,7.04
2023-02-11T01:13:34.657Z,7.04
2023-02-11T01:14:34.645Z,7.04
2023-02-11T01:15:34.672Z,7.04
2023-02-11T01:16:34.720Z,7.08
2023-02-11T01:17:34.615Z,7.08
2023-02-11T01:18:34.609Z,7.08
2023-02-11T01:19:34.593Z,7.09
2023-02-11T01:20:34.581Z,7.09
2023-02-11T01:21:34.578Z,7.08
2023-02-11T01:22:34.558Z,7.08
2023-02-11T01:23:34.545Z,7.08
2023-02-11T01:24:34.542Z,7.09
2023-02-11T01:25:34.525Z,7.08
2023-02-11T01:26:34.515Z,7.07
2023-02-11T01:27:34.506Z,7.08
2023-02-11T01:28:34.624Z,7.11
2023-02-11T01:29:34.487Z,7.08
2023-02-11T01:30:34.478Z,7.12
2023-02-11T01:31:34.577Z,7.09
2023-02-11T01:32:34.454Z,7.08
2023-02-11T01:33:34.456Z,7.09
2023-02-11T01:34:34.437Z,7.11
2023-02-11T01:35:34.422Z,7.09
2023-02-11T01:36:34.408Z,7.09
2023-02-11T01:37:34.399Z,7.11
2023-02-11T01:38:34.383Z,7.12
2023-02-11T01:39:34.400Z,7.12
2023-02-11T01:40:34.367Z,7.12
2023-02-11T01:41:34.346Z,7.11
2023-02-11T01:42:34.336Z,7.12
2023-02-11T01:43:34.323Z,7.09
2023-02-11T01:45:01.811Z,7.11
2023-02-11T01:46:01.871Z,7.12
2023-02-11T01:47:01.807Z,7.12
2023-02-11T01:48:01.769Z,7.12
2023-02-11T01:49:01.845Z,7.12
2023-02-11T01:50:01.763Z,7.15
2023-02-11T01:51:01.742Z,7.16
2023-02-11T01:52:01.734Z,7.15
2023-02-11T01:53:01.721Z,7.15
2023-02-11T01:54:01.705Z,7.15
2023-02-11T01:55:01.696Z,7.16
2023-02-11T01:56:01.681Z,7.15
2023-02-11T01:57:01.677Z,7.19
2023-02-11T01:58:01.662Z,7.19
2023-02-11T01:59:01.651Z,7.18
2023-02-11T02:00:01.640Z,7.21
2023-02-11T02:01:01.628Z,7.19
2023-02-11T02:02:01.682Z,7.18
2023-02-11T02:03:01.627Z,7.21
2023-02-11T02:04:01.722Z,7.21
2023-02-11T02:05:01.591Z,7.16
2023-02-11T02:06:01.576Z,7.18
2023-02-11T02:07:01.560Z,7.24
2023-02-11T02:08:01.546Z,7.23
2023-02-11T02:09:01.540Z,7.23
2023-02-11T02:10:01.531Z,7.23
2023-02-11T02:11:01.558Z,7.27
2023-02-11T02:12:01.535Z,7.24
2023-02-11T02:13:01.528Z,7.26
2023-02-11T02:14:01.524Z,7.27
2023-02-11T02:15:01.485Z,7.27
2023-02-11T02:16:01.515Z,7.30
2023-02-11T02:17:01.450Z,7.32
2023-02-11T02:18:01.435Z,7.29
2023-02-11T02:19:01.453Z,7.29
2023-02-11T02:20:01.409Z,7.26
2023-02-11T02:21:01.405Z,7.27
2023-02-11T02:22:01.514Z,7.27
2023-02-11T02:23:01.376Z,7.26
2023-02-11T02:24:01.363Z,7.26
2023-02-11T02:25:01.350Z,7.27
2023-02-11T02:26:01.341Z,7.24
2023-02-11T02:27:01.333Z,7.27
2023-02-11T02:28:01.380Z,7.26
2023-02-11T02:29:01.358Z,7.29
2023-02-11T02:30:01.298Z,7.29
2023-02-11T02:31:01.372Z,7.29
2023-02-11T02:32:01.273Z,7.29
2023-02-11T02:33:07.932Z,7.27
2023-02-11T02:34:01.248Z,7.27
2023-02-11T02:35:01.261Z,7.27
2023-02-11T02:36:01.229Z,7.29
2023-02-11T02:37:01.217Z,7.29
2023-02-11T02:38:01.206Z,7.29
2023-02-11T02:39:01.212Z,7.27
2023-02-11T02:40:01.178Z,7.29
2023-02-11T02:41:01.173Z,7.27
2023-02-11T02:42:01.157Z,7.27
2023-02-11T02:43:01.149Z,7.29
2023-02-11T02:44:01.141Z,7.29
2023-02-11T02:45:01.128Z,7.32
2023-02-11T02:46:01.114Z,7.32
2023-02-11T02:47:01.208Z,7.30
2023-02-11T02:48:01.090Z,7.32
2023-02-11T02:49:01.082Z,7.29
2023-02-11T02:50:01.070Z,7.30
2023-02-11T02:51:01.083Z,7.32
2023-02-11T02:52:01.047Z,7.32
2023-02-11T02:53:01.052Z,7.30
2023-02-11T02:54:01.024Z,7.32
2023-02-11T02:55:01.015Z,7.33
2023-02-11T02:56:01.004Z,7.34
2023-02-11T02:57:01.000Z,7.33
2023-02-11T02:58:00.987Z,7.32
2023-02-11T02:59:00.971Z,7.30
2023-02-11T03:00:00.964Z,7.32
2023-02-11T03:01:01.065Z,7.32
2023-02-11T03:02:00.934Z,7.32
2023-02-11T03:03:00.927Z,7.32
2023-02-11T03:04:01.048Z,7.34
2023-02-11T03:05:00.904Z,7.34
2023-02-11T03:06:00.891Z,7.34
2023-02-11T03:07:00.908Z,7.32
2023-02-11T03:08:00.867Z,7.34
2023-02-11T03:09:00.863Z,7.36
2023-02-11T03:10:00.848Z,7.36
2023-02-11T03:11:00.837Z,7.36
2023-02-11T03:12:00.823Z,7.33
2023-02-11T03:13:00.826Z,7.34
2023-02-11T03:14:00.799Z,7.34
2023-02-11T03:15:00.805Z,7.39
2023-02-11T03:16:00.851Z,7.37
2023-02-11T03:17:00.778Z,7.36
2023-02-11T03:18:00.761Z,7.41
2023-02-11T03:19:00.745Z,7.42
2023-02-11T03:20:00.743Z,7.41
2023-02-11T03:21:00.728Z,7.39
2023-02-11T03:22:00.712Z,7.41
2023-02-11T03:23:00.725Z,7.41
2023-02-11T03:24:00.688Z,7.45
2023-02-11T03:25:00.683Z,7.42
2023-02-11T03:26:00.662Z,7.44
2023-02-11T03:27:00.664Z,7.45
2023-02-11T03:28:00.692Z,7.42
2023-02-11T03:29:00.634Z,7.42
2023-02-11T03:30:00.626Z,7.47
2023-02-11T03:31:00.668Z,7.45
2023-02-11T03:32:00.703Z,7.45
2023-02-11T03:33:00.587Z,7.42
2023-02-11T03:34:00.578Z,7.45
2023-02-11T03:35:00.564Z,7.47
2023-02-11T03:36:00.577Z,7.47
2023-02-11T03:37:00.556Z,7.48
2023-02-11T03:38:00.535Z,7.47
2023-02-11T03:39:00.544Z,7.45
2023-02-11T03:40:00.513Z,7.47
2023-02-11T03:41:00.497Z,7.45
2023-02-11T03:42:00.487Z,7.44
2023-02-11T03:43:00.486Z,7.42
2023-02-11T03:44:00.464Z,7.44
2023-02-11T03:45:00.457Z,7.48
2023-02-11T03:46:00.491Z,7.51
2023-02-11T03:47:00.431Z,7.48
2023-02-11T03:48:00.430Z,7.52
2023-02-11T03:49:00.425Z,7.54
2023-02-11T03:50:00.398Z,7.54
2023-02-11T03:51:00.389Z,7.55
2023-02-11T03:52:00.374Z,7.54
2023-02-11T03:53:00.364Z,7.54
2023-02-11T03:54:00.353Z,7.55
2023-02-11T03:55:00.370Z,7.52
2023-02-11T03:56:00.335Z,7.54
2023-02-11T03:57:00.319Z,7.57
2023-02-11T03:58:00.308Z,7.55
2023-02-11T03:59:00.298Z,7.57
2023-02-11T04:00:00.304Z,7.55
2023-02-11T04:01:00.288Z,7.55
2023-02-11T04:02:00.270Z,7.55
2023-02-11T04:03:00.316Z,7.54
2023-02-11T04:04:00.242Z,7.58
2023-02-11T04:05:00.252Z,7.60
2023-02-11T04:06:00.218Z,7.60
2023-02-11T04:07:00.205Z,7.62
2023-02-11T04:08:00.198Z,7.60
2023-02-11T04:09:00.186Z,7.58
2023-02-11T04:10:00.172Z,7.57
2023-02-11T04:11:00.189Z,7.60
2023-02-11T04:12:00.153Z,7.58
2023-02-11T04:13:00.161Z,7.58
2023-02-11T04:14:00.169Z,7.57
2023-02-11T04:15:00.162Z,7.60
2023-02-11T04:16:00.230Z,7.66
2023-02-11T04:17:00.123Z,7.62
2023-02-11T04:18:00.130Z,7.63
2023-02-11T04:19:00.075Z,7.63
2023-02-11T04:20:00.077Z,7.62
2023-02-11T04:21:00.048Z,7.66
2023-02-11T04:22:00.044Z,7.63
2023-02-11T04:23:00.025Z,7.69
2023-02-11T04:24:00.016Z,7.63
2023-02-11T04:25:00.008Z,7.66
2023-02-11T04:26:00.015Z,7.67
2023-02-11T04:27:00.011Z,7.69
2023-02-11T04:28:00.055Z,7.69
2023-02-11T04:28:59.958Z,7.70
2023-02-11T04:29:59.954Z,7.71
2023-02-11T04:31:00.029Z,7.70
2023-02-11T04:32:00.006Z,7.71
2023-02-11T04:32:59.915Z,7.71
2023-02-11T04:33:59.910Z,7.73
2023-02-11T04:34:59.894Z,7.71
2023-02-11T04:35:59.884Z,7.70
2023-02-11T04:36:59.880Z,7.69
2023-02-11T04:37:59.862Z,7.71
2023-02-11T04:38:59.849Z,7.73
2023-02-11T04:39:59.838Z,7.71
2023-02-11T04:40:59.824Z,7.71
2023-02-11T04:41:59.824Z,7.73
2023-02-11T04:42:59.839Z,7.71
2023-02-11T04:43:59.798Z,7.70
2023-02-11T04:44:59.780Z,7.71
2023-02-11T04:45:59.818Z,7.71
2023-02-11T04:46:59.757Z,7.70
2023-02-11T04:47:59.749Z,7.70
2023-02-11T04:48:59.736Z,7.67
2023-02-11T04:49:59.724Z,7.66
2023-02-11T04:50:59.731Z,7.69
2023-02-11T04:51:59.704Z,7.67
2023-02-11T04:52:59.693Z,7.67
2023-02-11T04:53:59.680Z,7.69
2023-02-11T04:54:59.674Z,7.71
2023-02-11T04:55:59.656Z,7.71
2023-02-11T04:56:59.647Z,7.70
2023-02-11T04:57:59.638Z,7.71
2023-02-11T04:58:59.645Z,7.70
2023-02-11T04:59:59.613Z,7.71
2023-02-11T05:00:59.647Z,7.73
2023-02-11T05:01:59.594Z,7.74
2023-02-11T05:02:59.577Z,7.71
2023-02-11T05:03:59.638Z,7.73
2023-02-11T05:04:59.555Z,7.76
2023-02-11T05:05:59.544Z,7.76
2023-02-11T05:06:59.532Z,7.77
2023-02-11T05:07:59.530Z,7.74
2023-02-11T05:08:59.514Z,7.79
2023-02-11T05:09:59.501Z,7.76
2023-02-11T05:10:59.501Z,7.77
2023-02-11T05:11:59.479Z,7.77
2023-02-11T05:12:59.464Z,7.77
2023-02-11T05:13:59.454Z,7.76
2023-02-11T05:14:59.471Z,7.76
2023-02-11T05:15:59.452Z,7.76
2023-02-11T05:16:59.553Z,7.76
2023-02-11T05:17:59.413Z,7.76
2023-02-11T05:18:59.396Z,7.74
2023-02-11T05:19:59.386Z,7.76
2023-02-11T05:20:59.385Z,7.74
2023-02-11T05:22:03.072Z,7.76
2023-02-11T05:22:59.350Z,7.76
2023-02-11T05:23:59.343Z,7.76
2023-02-11T05:24:59.335Z,7.74
2023-02-11T05:25:59.320Z,7.73
2023-02-11T05:26:59.325Z,7.73
2023-02-11T05:27:59.301Z,7.73
2023-02-11T05:28:59.308Z,7.71
2023-02-11T05:29:59.332Z,7.71
2023-02-11T05:30:59.405Z,7.70
2023-02-11T05:31:59.442Z,7.73
2023-02-11T05:32:59.401Z,7.76
2023-02-11T05:33:59.363Z,7.76
2023-02-11T05:34:59.277Z,7.77
2023-02-11T05:35:59.237Z,7.77
2023-02-11T05:36:59.213Z,7.76
2023-02-11T05:37:59.187Z,7.76
2023-02-11T05:38:59.174Z,7.74
2023-02-11T05:39:59.165Z,7.71
2023-02-11T05:40:59.152Z,7.71
2023-02-11T05:41:59.144Z,7.76
2023-02-11T05:42:59.132Z,7.77
2023-02-11T05:43:59.120Z,7.79
2023-02-11T05:44:59.109Z,7.81
2023-02-11T05:45:59.311Z,7.77
2023-02-11T05:46:59.108Z,7.79
2023-02-11T05:47:59.074Z,7.81
2023-02-11T05:48:59.074Z,7.84
2023-02-11T05:49:59.055Z,7.81
2023-02-11T05:50:59.039Z,7.82
2023-02-11T05:51:59.029Z,7.81
2023-02-11T05:52:59.017Z,7.79
2023-02-11T05:53:59.007Z,7.81
2023-02-11T05:54:58.997Z,7.81
2023-02-11T05:55:58.985Z,7.77
2023-02-11T05:56:58.972Z,7.81
2023-02-11T05:57:58.964Z,7.79
2023-02-11T05:58:58.955Z,7.79
2023-02-11T05:59:58.955Z,7.76
2023-02-11T06:00:58.936Z,7.76
2023-02-11T06:01:58.925Z,7.74
2023-02-11T06:02:59.033Z,7.76
2023-02-11T06:03:58.949Z,7.77
2023-02-11T06:04:58.884Z,7.76
2023-02-11T06:05:58.887Z,7.77
2023-02-11T06:06:58.858Z,7.74
2023-02-11T06:07:58.849Z,7.73
2023-02-11T06:08:58.837Z,7.73
2023-02-11T06:09:58.829Z,7.71
2023-02-11T06:10:58.814Z,7.73
2023-02-11T06:11:58.808Z,7.70
2023-02-11T06:12:58.797Z,7.70
2023-02-11T06:13:58.783Z,7.70
2023-02-11T06:14:58.779Z,7.70
2023-02-11T06:15:58.842Z,7.69
2023-02-11T06:16:58.758Z,7.69
2023-02-11T06:17:58.738Z,7.69
2023-02-11T06:18:58.768Z,7.70
2023-02-11T06:19:58.715Z,7.67
2023-02-11T06:20:58.702Z,7.67
2023-02-11T06:21:58.696Z,7.69
2023-02-11T06:22:58.693Z,7.69
2023-02-11T06:23:58.676Z,7.70
2023-02-11T06:25:01.625Z,7.69
2023-02-11T06:25:58.648Z,7.71
2023-02-11T06:26:58.636Z,7.71
2023-02-11T06:27:58.678Z,7.70
2023-02-11T06:28:58.614Z,7.70
2023-02-11T06:29:58.606Z,7.70
2023-02-11T06:30:58.743Z,7.70
2023-02-11T06:31:58.709Z,7.71
2023-02-11T06:32:58.682Z,7.69
2023-02-11T06:33:58.598Z,7.69
2023-02-11T06:34:58.575Z,7.66
2023-02-11T06:35:58.538Z,7.70
2023-02-11T06:36:58.524Z,7.71
2023-02-11T06:37:58.516Z,7.73
2023-02-11T06:38:58.502Z,7.74
2023-02-11T06:39:58.493Z,7.70
2023-02-11T06:40:58.481Z,7.70
2023-02-11T06:41:58.474Z,7.70
2023-02-11T06:42:58.459Z,7.73
2023-02-11T06:43:58.448Z,7.73
2023-02-11T06:44:58.435Z,7.74
2023-02-11T06:45:58.429Z,7.74
2023-02-11T06:46:58.415Z,7.73
2023-02-11T06:47:58.413Z,7.71
2023-02-11T06:48:58.392Z,7.70
2023-02-11T06:49:58.383Z,7.70
2023-02-11T06:50:58.388Z,7.71
2023-02-11T06:51:58.362Z,7.74
2023-02-11T06:52:58.348Z,7.74
2023-02-11T06:53:58.343Z,7.76
2023-02-11T06:54:58.327Z,7.77
2023-02-11T06:55:58.314Z,7.76
2023-02-11T06:56:58.301Z,7.74
2023-02-11T06:57:58.296Z,7.73
2023-02-11T06:58:58.280Z,7.76
2023-02-11T06:59:58.271Z,7.79
2023-02-11T07:00:58.257Z,7.81
2023-02-11T07:01:58.299Z,7.82
2023-02-11T07:02:58.268Z,7.81
2023-02-11T07:03:58.235Z,7.81
2023-02-11T07:04:58.210Z,7.82
2023-02-11T07:05:58.214Z,7.79
2023-02-11T07:06:58.232Z,7.81
2023-02-11T07:07:58.183Z,7.79
2023-02-11T07:08:58.200Z,7.82
2023-02-11T07:09:58.158Z,7.81
2023-02-11T07:10:58.145Z,7.82
2023-02-11T07:11:58.290Z,7.79
2023-02-11T07:12:58.921Z,7.85
2023-02-11T07:13:58.114Z,7.84
2023-02-11T07:14:58.099Z,7.84
2023-02-11T07:15:58.155Z,7.86
2023-02-11T07:16:58.083Z,7.88
2023-02-11T07:17:58.074Z,7.88
2023-02-11T07:18:58.057Z,7.88
2023-02-11T07:19:58.049Z,7.91
2023-02-11T07:20:58.039Z,7.92
2023-02-11T07:21:58.028Z,7.95
2023-02-11T07:22:58.038Z,7.92
2023-02-11T07:23:58.001Z,7.94
2023-02-11T07:24:57.991Z,7.96
2023-02-11T07:25:57.977Z,7.96
2023-02-11T07:26:57.972Z,7.96
2023-02-11T07:27:58.012Z,7.96
2023-02-11T07:28:57.963Z,7.96
2023-02-11T07:29:57.938Z,7.95
2023-02-11T07:30:57.994Z,7.96
2023-02-11T07:31:57.986Z,7.95
2023-02-11T07:32:57.916Z,7.95
2023-02-11T07:33:57.888Z,7.99
2023-02-11T07:34:57.958Z,7.99
2023-02-11T07:35:57.871Z,8.00
2023-02-11T07:36:57.856Z,7.99
2023-02-11T07:37:57.881Z,8.03
2023-02-11T07:38:57.865Z,8.06
2023-02-11T07:39:57.824Z,8.06
2023-02-11T07:40:57.806Z,8.07
2023-02-11T07:41:57.810Z,8.09
2023-02-11T07:42:57.794Z,8.10
2023-02-11T07:43:57.777Z,8.10
2023-02-11T07:44:57.765Z,8.12
2023-02-11T07:45:57.756Z,8.07
2023-02-11T07:46:57.926Z,8.10
2023-02-11T07:47:57.732Z,8.10
2023-02-11T07:48:57.730Z,8.09
2023-02-11T07:49:57.709Z,8.12
2023-02-11T07:50:57.693Z,8.13
2023-02-11T07:51:57.706Z,8.12
2023-02-11T07:52:57.675Z,8.14
2023-02-11T07:53:57.717Z,8.17
2023-02-11T07:54:57.686Z,8.14
2023-02-11T07:55:57.640Z,8.14
2023-02-11T07:56:57.682Z,8.14
2023-02-11T07:57:57.618Z,8.14
2023-02-11T07:58:57.604Z,8.17
2023-02-11T07:59:57.595Z,8.17
2023-02-11T08:00:57.598Z,8.14
2023-02-11T08:01:57.613Z,8.14
2023-02-11T08:02:57.566Z,8.14
2023-02-11T08:03:57.565Z,8.18
2023-02-11T08:04:57.540Z,8.17
2023-02-11T08:05:57.530Z,8.14
2023-02-11T08:06:59.108Z,8.18
2023-02-11T08:07:57.513Z,8.17
2023-02-11T08:08:57.493Z,8.14
2023-02-11T08:09:57.482Z,8.13
2023-02-11T08:10:57.495Z,8.17
2023-02-11T08:11:57.461Z,8.18
2023-02-11T08:12:57.447Z,8.18
2023-02-11T08:13:57.448Z,8.18
2023-02-11T08:14:57.434Z,8.18
2023-02-11T08:15:57.411Z,8.18
2023-02-11T08:16:57.406Z,8.20
2023-02-11T08:17:57.394Z,8.20
2023-02-11T08:18:57.384Z,8.20
2023-02-11T08:19:57.367Z,8.20
2023-02-11T08:20:57.410Z,8.21
2023-02-11T08:21:57.345Z,8.22
2023-02-11T08:22:57.338Z,8.24
2023-02-11T08:23:57.325Z,8.22
2023-02-11T08:24:57.311Z,8.24
2023-02-11T08:25:57.452Z,8.24
2023-02-11T08:26:57.310Z,8.22
2023-02-11T08:27:57.355Z,8.24
2023-02-11T08:28:57.272Z,8.22
2023-02-11T08:29:57.265Z,8.24
2023-02-11T08:30:57.276Z,8.27
2023-02-11T08:31:57.316Z,8.25
2023-02-11T08:32:57.226Z,8.24
2023-02-11T08:33:57.216Z,8.25
2023-02-11T08:34:57.200Z,8.25
2023-02-11T08:35:57.185Z,8.27
2023-02-11T08:36:57.176Z,8.27
2023-02-11T08:37:57.159Z,8.27
2023-02-11T08:39:12.117Z,8.28
2023-02-11T08:39:57.142Z,8.28
2023-02-11T08:40:57.130Z,8.28
2023-02-11T08:41:57.117Z,8.28
2023-02-11T08:42:57.130Z,8.29
2023-02-11T08:43:57.096Z,8.29
2023-02-11T08:44:57.087Z,8.31
2023-02-11T08:45:57.133Z,8.31
2023-02-11T08:46:57.060Z,8.32
2023-02-11T08:47:57.046Z,8.34
2023-02-11T08:48:57.039Z,8.32
2023-02-11T08:49:57.024Z,8.32
2023-02-11T08:50:57.012Z,8.32
2023-02-11T08:51:57.001Z,8.34
2023-02-11T08:52:56.993Z,8.37
2023-02-11T08:53:56.984Z,8.36
2023-02-11T08:54:56.969Z,8.36
2023-02-11T08:55:56.967Z,8.37
2023-02-11T08:56:56.949Z,8.39
2023-02-11T08:57:56.937Z,8.40
2023-02-11T08:58:56.947Z,8.42
2023-02-11T08:59:56.910Z,8.39
2023-02-11T09:00:56.913Z,8.42
2023-02-11T09:01:56.955Z,8.43
2023-02-11T09:02:56.883Z,8.43
2023-02-11T09:03:56.867Z,8.45
2023-02-11T09:04:56.856Z,8.45
2023-02-11T09:05:56.844Z,8.46
2023-02-11T09:06:56.838Z,8.43
2023-02-11T09:07:56.822Z,8.45
2023-02-11T09:08:56.817Z,8.45
2023-02-11T09:09:56.798Z,8.45
2023-02-11T09:10:56.796Z,8.43
2023-02-11T09:11:56.781Z,8.45
2023-02-11T09:12:56.768Z,8.47
2023-02-11T09:13:56.772Z,8.47
2023-02-11T09:14:56.772Z,8.47
2023-02-11T09:15:56.736Z,8.50
2023-02-11T09:16:56.847Z,8.50
2023-02-11T09:17:56.726Z,8.52
2023-02-11T09:18:56.751Z,8.57
2023-02-11T09:19:56.692Z,8.57
2023-02-11T09:20:56.678Z,8.58
2023-02-11T09:21:56.665Z,8.58
2023-02-11T09:22:56.663Z,8.60
2023-02-11T09:23:56.709Z,8.60
2023-02-11T09:24:56.637Z,8.61
2023-02-11T09:25:56.623Z,8.61
2023-02-11T09:26:56.618Z,8.61
2023-02-11T09:27:56.632Z,8.64
2023-02-11T09:28:56.600Z,8.64
2023-02-11T09:29:56.577Z,8.63
2023-02-11T09:30:56.744Z,8.65
2023-02-11T09:31:56.672Z,8.65
2023-02-11T09:32:56.545Z,8.64
2023-02-11T09:33:56.538Z,8.65
2023-02-11T09:34:56.525Z,8.64
2023-02-11T09:35:56.509Z,8.65
2023-02-11T09:36:56.498Z,8.67
2023-02-11T09:37:56.488Z,8.70
2023-02-11T09:38:56.479Z,8.70
2023-02-11T09:39:56.466Z,8.67
2023-02-11T09:40:56.455Z,8.65
2023-02-11T09:41:56.446Z,8.68
2023-02-11T09:43:01.133Z,8.67
2023-02-11T09:43:56.419Z,8.65
2023-02-11T09:44:56.413Z,8.65
2023-02-11T09:45:56.403Z,8.71
2023-02-11T09:46:56.418Z,8.68
2023-02-11T09:47:56.373Z,8.65
2023-02-11T09:48:56.390Z,8.68
2023-02-11T09:49:56.353Z,8.67
2023-02-11T09:50:56.342Z,8.67
2023-02-11T09:51:56.331Z,8.67
2023-02-11T09:52:56.323Z,8.68
2023-02-11T09:53:58.143Z,8.70
2023-02-11T09:54:56.307Z,8.71
2023-02-11T09:55:56.294Z,8.75
2023-02-11T09:56:56.279Z,8.71
2023-02-11T09:57:56.265Z,8.73
2023-02-11T09:58:56.261Z,8.76
2023-02-11T09:59:56.248Z,8.76
2023-02-11T10:00:56.237Z,8.79
2023-02-11T10:01:56.224Z,8.78
2023-02-11T10:02:56.248Z,8.79
2023-02-11T10:03:56.233Z,8.79
2023-02-11T10:04:56.190Z,8.80
2023-02-11T10:05:56.177Z,8.79
2023-02-11T10:06:56.164Z,8.76
2023-02-11T10:07:56.157Z,8.75
2023-02-11T10:08:56.143Z,8.75
2023-02-11T10:09:56.136Z,8.71
2023-02-11T10:10:56.124Z,8.71
2023-02-11T10:11:56.108Z,8.76
2023-02-11T10:12:56.100Z,8.76
2023-02-11T10:13:56.094Z,8.80
2023-02-11T10:14:56.100Z,8.82
2023-02-11T10:15:56.127Z,8.82
2023-02-11T10:16:56.053Z,8.79
2023-02-11T10:17:56.042Z,8.83
2023-02-11T10:18:56.055Z,8.85
2023-02-11T10:19:56.136Z,8.83
2023-02-11T10:20:56.008Z,8.86
2023-02-11T10:21:56.099Z,8.85
2023-02-11T10:22:55.992Z,8.86
2023-02-11T10:23:55.978Z,8.83
2023-02-11T10:24:55.977Z,8.89
2023-02-11T10:25:55.952Z,8.88
2023-02-11T10:26:55.944Z,8.89
2023-02-11T10:27:56.017Z,8.89
2023-02-11T10:28:55.935Z,8.91
2023-02-11T10:29:55.913Z,8.94
2023-02-11T10:30:56.196Z,8.97
2023-02-11T10:31:58.186Z,8.96
2023-02-11T10:32:55.875Z,8.98
2023-02-11T10:33:55.862Z,9.00
2023-02-11T10:34:55.905Z,9.03
2023-02-11T10:35:55.840Z,9.03
2023-02-11T10:36:55.830Z,9.01
2023-02-11T10:37:55.815Z,9.03
2023-02-11T10:38:55.808Z,9.08
2023-02-11T10:39:55.798Z,9.13
2023-02-11T10:40:55.789Z,9.13
2023-02-11T10:41:55.771Z,9.13
2023-02-11T10:42:55.970Z,9.10
2023-02-11T10:43:55.752Z,9.10
2023-02-11T10:44:55.751Z,9.12
2023-02-11T10:45:55.727Z,9.12
2023-02-11T10:46:55.722Z,9.13
2023-02-11T10:47:55.708Z,9.10
2023-02-11T10:48:55.699Z,9.08
2023-02-11T10:49:55.729Z,9.12
2023-02-11T10:50:55.729Z,9.10
2023-02-11T10:51:55.659Z,9.13
2023-02-11T10:52:55.649Z,9.13
2023-02-11T10:53:55.635Z,9.06
2023-02-11T10:54:55.631Z,9.04
2023-02-11T10:55:55.627Z,9.10
2023-02-11T10:56:55.607Z,9.10
2023-02-11T10:57:55.688Z,9.12
2023-02-11T10:58:55.585Z,9.10
2023-02-11T10:59:55.580Z,9.12
2023-02-11T11:00:55.572Z,9.06
2023-02-11T11:01:55.575Z,9.06
2023-02-11T11:02:55.542Z,9.04
2023-02-11T11:03:55.532Z,9.00
2023-02-11T11:04:55.576Z,8.98
2023-02-11T11:05:58.096Z,8.98
2023-02-11T11:06:55.558Z,8.96
2023-02-11T11:07:55.490Z,8.97
2023-02-11T11:08:55.472Z,8.97
2023-02-11T11:09:55.458Z,8.96
2023-02-11T11:10:55.450Z,8.94
2023-02-11T11:11:55.437Z,8.93
2023-02-11T11:12:55.431Z,8.94
2023-02-11T11:13:55.423Z,8.96
2023-02-11T11:14:55.408Z,8.96
2023-02-11T11:15:55.445Z,8.96
2023-02-11T11:16:55.388Z,8.94
2023-02-11T11:18:04.679Z,8.94
2023-02-11T11:18:55.362Z,8.91
2023-02-11T11:19:55.346Z,8.93
2023-02-11T11:20:55.342Z,8.94
2023-02-11T11:21:55.332Z,8.96
2023-02-11T11:22:55.338Z,8.91
2023-02-11T11:23:55.302Z,8.94
2023-02-11T11:24:55.304Z,8.97
2023-02-11T11:25:55.285Z,8.96
2023-02-11T11:26:55.270Z,8.96
2023-02-11T11:27:55.336Z,8.98
2023-02-11T11:28:55.249Z,8.97
2023-02-11T11:29:55.254Z,8.96
2023-02-11T11:30:55.525Z,8.96
2023-02-11T11:31:55.335Z,8.97
2023-02-11T11:32:55.205Z,8.96
2023-02-11T11:33:55.194Z,8.94
2023-02-11T11:34:55.186Z,8.94
2023-02-11T11:35:55.173Z,8.91
2023-02-11T11:36:55.161Z,8.93
2023-02-11T11:37:55.144Z,8.94
2023-02-11T11:38:55.167Z,8.97
2023-02-11T11:39:55.126Z,9.01
2023-02-11T11:40:55.111Z,9.01
2023-02-11T11:41:55.099Z,9.03
2023-02-11T11:42:55.088Z,9.04
2023-02-11T11:43:55.075Z,9.04
2023-02-11T11:44:55.069Z,9.10
2023-02-11T11:45:55.048Z,9.13
2023-02-11T11:46:55.071Z,9.12
2023-02-11T11:47:55.078Z,9.12
2023-02-11T11:48:55.018Z,9.12
2023-02-11T11:49:55.002Z,9.10
2023-02-11T11:50:54.996Z,9.15
2023-02-11T11:51:54.980Z,9.16
2023-02-11T11:52:54.968Z,9.17
2023-02-11T11:53:54.959Z,9.16
2023-02-11T11:54:54.972Z,9.19
2023-02-11T11:55:56.799Z,9.22
2023-02-11T11:56:54.926Z,9.30
2023-02-11T11:57:54.913Z,9.34
2023-02-11T11:58:54.933Z,9.32
2023-02-11T11:59:54.893Z,9.34
2023-02-11T12:00:54.884Z,9.35
2023-02-11T12:01:54.924Z,9.32
2023-02-11T12:02:54.922Z,9.32
2023-02-11T12:03:54.851Z,9.37
2023-02-11T12:04:54.834Z,9.35
2023-02-11T12:05:54.823Z,9.40
2023-02-11T12:06:54.815Z,9.42
2023-02-11T12:07:54.797Z,9.42
2023-02-11T12:08:54.791Z,9.44
2023-02-11T12:09:54.777Z,9.45
2023-02-11T12:10:54.796Z,9.45
2023-02-11T12:11:54.758Z,9.45
2023-02-11T12:12:54.746Z,9.53
2023-02-11T12:13:54.731Z,9.55
2023-02-11T12:14:54.721Z,9.60
2023-02-11T12:15:54.706Z,9.65
2023-02-11T12:16:54.803Z,9.63
2023-02-11T12:17:54.690Z,9.58
2023-02-11T12:18:54.673Z,9.56
2023-02-11T12:19:54.664Z,9.58
2023-02-11T12:20:54.650Z,9.58
2023-02-11T12:21:54.645Z,9.53
2023-02-11T12:22:54.629Z,9.56
2023-02-11T12:23:54.629Z,9.55
2023-02-11T12:24:54.614Z,9.58
2023-02-11T12:25:54.598Z,9.58
2023-02-11T12:26:54.608Z,9.60
2023-02-11T12:27:54.576Z,9.60
2023-02-11T12:28:54.562Z,9.58
2023-02-11T12:29:54.556Z,9.59
2023-02-11T12:30:54.715Z,9.60
2023-02-11T12:31:54.608Z,9.63
2023-02-11T12:32:54.518Z,9.59
2023-02-11T12:33:54.512Z,9.58
2023-02-11T12:34:54.508Z,9.60
2023-02-11T12:35:54.489Z,9.65
2023-02-11T12:36:54.501Z,9.59
2023-02-11T12:37:54.463Z,9.63
2023-02-11T12:38:54.451Z,9.60
2023-02-11T12:39:54.440Z,9.65
2023-02-11T12:40:54.427Z,9.62
2023-02-11T12:41:54.419Z,9.63
2023-02-11T12:42:54.428Z,9.67
2023-02-11T12:43:54.397Z,9.68
2023-02-11T12:44:54.383Z,9.63
2023-02-11T12:45:54.403Z,9.67
2023-02-11T12:46:54.360Z,9.63
2023-02-11T12:47:54.354Z,9.63
2023-02-11T12:48:54.339Z,9.62
2023-02-11T12:49:54.332Z,9.62
2023-02-11T12:50:54.317Z,9.60
2023-02-11T12:51:54.311Z,9.62
2023-02-11T12:52:54.292Z,9.65
2023-02-11T12:53:54.333Z,9.67
2023-02-11T12:54:54.282Z,9.67
2023-02-11T12:55:54.298Z,9.67
2023-02-11T12:56:54.331Z,9.68
2023-02-11T12:57:54.335Z,9.65
2023-02-11T12:58:54.371Z,9.63
2023-02-11T12:59:54.324Z,9.63
2023-02-11T13:00:54.828Z,9.65
2023-02-11T13:01:54.383Z,9.67
2023-02-11T13:02:54.189Z,9.67
2023-02-11T13:03:54.178Z,9.68
2023-02-11T13:04:54.166Z,9.67
2023-02-11T13:05:54.158Z,9.67
2023-02-11T13:06:54.141Z,9.70
2023-02-11T13:07:54.138Z,9.73
2023-02-11T13:08:54.115Z,9.73
2023-02-11T13:09:54.109Z,9.78
2023-02-11T13:10:54.179Z,9.75
2023-02-11T13:11:54.100Z,9.78
2023-02-11T13:12:54.071Z,9.75
2023-02-11T13:13:54.060Z,9.74
2023-02-11T13:14:54.074Z,9.74
2023-02-11T13:15:54.046Z,9.71
2023-02-11T13:16:54.076Z,9.71
2023-02-11T13:17:54.081Z,9.63
2023-02-11T13:18:54.013Z,9.63